createdAt,value
2023-02-22T00:01:51.090Z,25.48
2023-02-22T00:04:21.279Z,27.38
2023-02-22T00:06:50.000Z,20.88
2023-02-22T00:09:20.674Z,22.33
2023-02-22T00:11:49.390Z,23.10
2023-02-22T00:14:20.644Z,24.02
2023-02-22T00:16:48.846Z,22.45
2023-02-22T00:19:17.010Z,24.88
2023-02-22T00:21:45.163Z,27.45
2023-02-22T00:24:23.146Z,26.95
2023-02-22T00:26:52.055Z,26.63
2023-02-22T00:29:21.125Z,25.38
2023-02-22T00:31:49.183Z,25.80
2023-02-22T00:34:17.294Z,23.05
2023-02-22T00:36:46.891Z,21.67
2023-02-22T00:39:14.732Z,23.20
2023-02-22T00:41:42.486Z,25.63
2023-02-22T00:44:10.154Z,28.67
2023-02-22T00:46:39.246Z,20.15
2023-02-22T00:49:07.015Z,20.80
2023-02-22T00:51:34.917Z,23.65
2023-02-22T00:54:02.589Z,22.42
2023-02-22T00:56:30.560Z,18.73
2023-02-22T00:58:58.251Z,23.02
2023-02-22T01:01:26.074Z,25.40
2023-02-22T01:03:55.927Z,21.35
2023-02-22T01:06:23.957Z,21.23
2023-02-22T01:08:52.041Z,15.82
2023-02-22T01:11:20.082Z,22.92
2023-02-22T01:13:49.874Z,21.58
2023-02-22T01:16:17.704Z,21.98
2023-02-22T01:18:45.620Z,23.55
2023-02-22T01:21:15.868Z,20.50
2023-02-22T01:23:45.848Z,20.73
2023-02-22T01:26:13.741Z,19.17
2023-02-22T01:28:41.768Z,24.20
2023-02-22T01:31:09.910Z,19.77
2023-02-22T01:33:37.953Z,21.42
2023-02-22T01:36:11.226Z,20.10
2023-02-22T01:38:40.322Z,22.02
2023-02-22T01:41:08.510Z,21.13
2023-02-22T01:43:38.117Z,24.73
2023-02-22T01:46:08.197Z,17.15
2023-02-22T01:48:41.066Z,19.40
2023-02-22T01:51:14.586Z,21.67
2023-02-22T01:53:53.477Z,20.35
2023-02-22T01:56:22.298Z,19.20
2023-02-22T01:58:54.030Z,21.67
2023-02-22T02:01:24.023Z,19.92
2023-02-22T02:03:52.620Z,24.58
2023-02-22T02:06:20.381Z,24.17
2023-02-22T02:08:54.097Z,25.30
2023-02-22T02:11:25.366Z,27.45
2023-02-22T02:13:55.171Z,23.02
2023-02-22T02:16:24.200Z,29.23
2023-02-22T02:18:52.062Z,30.05
2023-02-22T02:21:36.230Z,25.73
2023-02-22T02:24:34.055Z,20.58
2023-02-22T02:27:20.273Z,22.20
2023-02-22T02:30:14.208Z,26.02
2023-02-22T02:32:52.096Z,29.25
2023-02-22T02:35:24.889Z,23.98
2023-02-22T02:37:57.683Z,22.35
2023-02-22T02:40:29.649Z,26.08
2023-02-22T02:43:03.084Z,31.95
2023-02-22T02:45:36.331Z,24.20
2023-02-22T02:48:07.401Z,23.75
2023-02-22T02:50:41.488Z,23.33
2023-02-22T02:53:10.482Z,21.45
2023-02-22T02:55:38.621Z,28.95
2023-02-22T02:58:08.834Z,29.98
2023-02-22T03:00:40.359Z,21.63
2023-02-22T03:03:23.217Z,24.00
2023-02-22T03:06:13.570Z,23.60
2023-02-22T03:08:44.364Z,25.35
2023-02-22T03:11:16.489Z,29.48
2023-02-22T03:13:52.784Z,23.48
2023-02-22T03:16:28.288Z,25.35
2023-02-22T03:19:04.652Z,21.00
2023-02-22T03:21:36.105Z,23.98
2023-02-22T03:24:09.784Z,21.40
2023-02-22T03:26:41.700Z,22.85
2023-02-22T03:29:13.000Z,28.77
2023-02-22T03:31:44.129Z,21.52
2023-02-22T03:34:15.990Z,27.08
2023-02-22T03:36:46.093Z,21.45
2023-02-22T03:39:16.963Z,27.58
2023-02-22T03:41:51.352Z,24.98
2023-02-22T03:44:24.507Z,22.02
2023-02-22T03:46:56.630Z,24.88
2023-02-22T03:49:34.932Z,28.20
2023-02-22T03:52:03.479Z,22.00
2023-02-22T03:54:34.934Z,21.58
2023-02-22T03:57:09.614Z,21.88
2023-02-22T03:59:40.326Z,22.52
2023-02-22T04:02:08.461Z,21.13
2023-02-22T04:04:37.440Z,21.52
2023-02-22T04:07:06.757Z,26.40
2023-02-22T04:09:34.846Z,21.08
2023-02-22T04:12:04.043Z,25.00
2023-02-22T04:14:37.133Z,20.13
2023-02-22T04:17:04.996Z,23.17
2023-02-22T04:19:32.617Z,21.17
2023-02-22T04:22:01.790Z,22.80
2023-02-22T04:24:34.368Z,22.58
2023-02-22T04:27:02.248Z,25.05
2023-02-22T04:29:30.449Z,24.55
2023-02-22T04:31:58.232Z,26.25
2023-02-22T04:34:26.248Z,19.83
2023-02-22T04:36:54.812Z,27.23
2023-02-22T04:39:24.601Z,24.10
2023-02-22T04:41:53.349Z,21.63
2023-02-22T04:44:20.965Z,24.77
2023-02-22T04:46:48.843Z,22.35
2023-02-22T04:49:17.380Z,22.55
2023-02-22T04:51:46.292Z,22.67
2023-02-22T04:54:14.621Z,24.17
2023-02-22T04:56:47.151Z,21.55
2023-02-22T04:59:15.168Z,18.88
2023-02-22T05:01:47.277Z,22.83
2023-02-22T05:04:14.944Z,20.13
2023-02-22T05:06:42.543Z,19.08
2023-02-22T05:09:10.233Z,17.45
2023-02-22T05:11:37.937Z,16.58
2023-02-22T05:14:07.782Z,15.77
2023-02-22T05:16:35.870Z,15.93
2023-02-22T05:19:03.585Z,16.65
2023-02-22T05:21:32.045Z,17.70
2023-02-22T05:23:59.809Z,17.92
2023-02-22T05:26:27.765Z,17.08
2023-02-22T05:28:55.497Z,17.48
2023-02-22T05:31:24.618Z,16.80
2023-02-22T05:33:53.482Z,11.50
2023-02-22T05:36:21.180Z,14.60
2023-02-22T05:38:49.311Z,13.20
2023-02-22T05:41:17.578Z,19.17
2023-02-22T05:43:45.364Z,12.57
2023-02-22T05:46:13.005Z,14.52
2023-02-22T05:48:42.573Z,11.73
2023-02-22T05:51:10.727Z,12.82
2023-02-22T05:53:38.765Z,9.77
2023-02-22T05:56:07.290Z,14.13
2023-02-22T05:58:35.077Z,14.38
2023-02-22T06:01:03.414Z,11.32
2023-02-22T06:03:31.414Z,15.10
2023-02-22T06:06:00.411Z,11.32
2023-02-22T06:08:28.159Z,16.88
2023-02-22T06:10:55.883Z,12.20
2023-02-22T06:13:23.582Z,14.45
2023-02-22T06:15:51.443Z,17.30
2023-02-22T06:18:19.328Z,10.45
2023-02-22T06:20:47.035Z,12.93
2023-02-22T06:23:16.291Z,11.90
2023-02-22T06:25:44.130Z,13.55
2023-02-22T06:28:11.774Z,12.07
2023-02-22T06:30:39.528Z,12.80
2023-02-22T06:33:07.302Z,12.15
2023-02-22T06:35:35.041Z,14.70
2023-02-22T06:38:02.826Z,14.70
2023-02-22T06:40:32.619Z,17.52
2023-02-22T06:43:00.762Z,15.48
2023-02-22T06:45:28.551Z,15.13
2023-02-22T06:47:56.948Z,19.77
2023-02-22T06:50:26.442Z,14.13
2023-02-22T06:52:54.188Z,19.10
2023-02-22T06:55:24.731Z,15.13
2023-02-22T06:57:54.054Z,11.80
2023-02-22T07:00:24.709Z,14.75
2023-02-22T07:02:52.893Z,18.55
2023-02-22T07:05:22.657Z,17.52
2023-02-22T07:07:52.535Z,15.50
2023-02-22T07:10:22.680Z,20.77
2023-02-22T07:12:52.666Z,21.85
2023-02-22T07:15:23.646Z,16.92
2023-02-22T07:17:51.968Z,14.27
2023-02-22T07:20:21.503Z,13.38
2023-02-22T07:22:51.253Z,14.23
2023-02-22T07:25:19.191Z,16.60
2023-02-22T07:27:47.383Z,17.35
2023-02-22T07:30:18.779Z,20.95
2023-02-22T07:32:48.239Z,23.25
2023-02-22T07:35:17.900Z,18.88
2023-02-22T07:37:45.690Z,19.75
2023-02-22T07:40:13.987Z,18.17
2023-02-22T07:42:55.673Z,22.25
2023-02-22T07:45:24.130Z,25.20
2023-02-22T07:47:53.330Z,24.98
2023-02-22T07:50:22.192Z,24.15
2023-02-22T07:52:50.956Z,23.08
2023-02-22T07:55:21.298Z,22.88
2023-02-22T07:57:50.109Z,24.88
2023-02-22T08:00:23.710Z,22.73
2023-02-22T08:02:53.326Z,24.55
2023-02-22T08:05:23.263Z,24.90
2023-02-22T08:07:51.014Z,24.23
2023-02-22T08:10:21.183Z,25.77
2023-02-22T08:12:49.915Z,27.17
2023-02-22T08:15:19.775Z,25.35
2023-02-22T08:17:47.466Z,24.80
2023-02-22T08:20:16.767Z,23.92
2023-02-22T08:22:44.614Z,22.52
2023-02-22T08:25:12.834Z,22.02
2023-02-22T08:27:40.551Z,24.27
2023-02-22T08:30:09.516Z,30.58
2023-02-22T08:32:37.720Z,28.00
2023-02-22T08:35:07.063Z,23.95
2023-02-22T08:37:36.095Z,26.95
2023-02-22T08:40:03.851Z,25.58
2023-02-22T08:42:31.567Z,24.10
2023-02-22T08:44:59.533Z,20.33
2023-02-22T08:47:27.297Z,21.48
2023-02-22T08:49:55.207Z,25.77
2023-02-22T08:52:22.985Z,20.48
2023-02-22T08:54:52.011Z,20.40
2023-02-22T08:57:21.667Z,17.33
2023-02-22T08:59:49.981Z,18.77
2023-02-22T09:02:20.245Z,22.30
2023-02-22T09:04:49.157Z,20.35
2023-02-22T09:07:17.957Z,17.10
2023-02-22T09:09:46.198Z,20.40
2023-02-22T09:12:15.403Z,18.88
2023-02-22T09:14:43.852Z,14.77
2023-02-22T09:17:11.620Z,17.05
2023-02-22T09:19:39.451Z,18.60
2023-02-22T09:22:07.232Z,16.10
2023-02-22T09:24:36.051Z,15.05
2023-02-22T09:27:04.412Z,13.23
2023-02-22T09:29:33.906Z,13.05
2023-02-22T09:32:01.862Z,16.30
2023-02-22T09:34:30.573Z,16.08
2023-02-22T09:36:58.723Z,14.35
2023-02-22T09:39:26.494Z,16.25
2023-02-22T09:41:59.320Z,15.63
2023-02-22T09:44:36.480Z,14.75
2023-02-22T09:47:10.505Z,17.40
2023-02-22T09:49:40.484Z,16.15
2023-02-22T09:52:14.536Z,16.05
2023-02-22T09:54:45.563Z,15.45
2023-02-22T09:57:20.096Z,15.05
2023-02-22T09:59:58.028Z,15.02
2023-02-22T10:02:29.686Z,17.90
2023-02-22T10:05:01.529Z,14.13
2023-02-22T10:07:33.473Z,18.55
2023-02-22T10:10:06.505Z,16.08
2023-02-22T10:12:43.110Z,17.23
2023-02-22T10:15:38.138Z,19.10
2023-02-22T10:18:40.412Z,14.57
2023-02-22T10:21:14.468Z,16.55
2023-02-22T10:23:47.840Z,16.67
2023-02-22T10:26:18.050Z,16.75
2023-02-22T10:28:54.145Z,16.45
2023-02-22T10:31:26.040Z,15.55
2023-02-22T10:33:58.514Z,14.98
2023-02-22T10:36:26.882Z,14.63
2023-02-22T10:38:58.123Z,19.10
2023-02-22T10:41:30.593Z,15.45
2023-02-22T10:43:59.361Z,13.60
2023-02-22T10:46:29.615Z,15.13
2023-02-22T10:49:03.336Z,13.38
2023-02-22T10:51:31.467Z,14.75
2023-02-22T10:54:04.063Z,15.40
2023-02-22T10:56:31.780Z,13.55
2023-02-22T10:59:02.325Z,14.23
2023-02-22T11:01:36.772Z,11.80
2023-02-22T11:04:12.096Z,15.40
2023-02-22T11:06:41.222Z,12.35
2023-02-22T11:09:12.606Z,12.80
2023-02-22T11:11:42.105Z,12.07
2023-02-22T11:14:11.585Z,10.38
2023-02-22T11:16:42.642Z,14.68
2023-02-22T11:19:20.470Z,11.98
2023-02-22T11:21:51.444Z,13.60
2023-02-22T11:24:20.516Z,12.55
2023-02-22T11:26:50.219Z,13.75
2023-02-22T11:29:21.087Z,13.13
2023-02-22T11:31:50.247Z,15.18
2023-02-22T11:34:35.202Z,11.13
2023-02-22T11:37:29.280Z,12.20
2023-02-22T11:40:18.209Z,11.30
2023-02-22T11:42:46.743Z,12.70
2023-02-22T11:45:17.117Z,12.02
2023-02-22T11:47:53.660Z,10.88
2023-02-22T11:50:30.788Z,13.05
2023-02-22T11:53:12.040Z,11.07
2023-02-22T11:55:49.369Z,10.57
2023-02-22T11:58:27.870Z,11.00
2023-02-22T12:00:59.865Z,12.10
2023-02-22T12:03:45.161Z,14.20
2023-02-22T12:06:24.693Z,8.85
2023-02-22T12:09:02.308Z,11.27
2023-02-22T12:11:36.902Z,12.30
2023-02-22T12:14:19.207Z,11.82
2023-02-22T12:17:08.855Z,11.45
2023-02-22T12:19:39.023Z,12.85
2023-02-22T12:22:11.382Z,13.27
2023-02-22T12:24:41.601Z,13.68
2023-02-22T12:27:12.560Z,12.02
2023-02-22T12:29:44.680Z,15.95
2023-02-22T12:32:17.069Z,14.52
2023-02-22T12:34:47.145Z,12.23
2023-02-22T12:37:19.384Z,12.20
2023-02-22T12:39:54.109Z,11.70
2023-02-22T12:42:29.112Z,13.88
2023-02-22T12:45:01.230Z,13.63
2023-02-22T12:47:33.532Z,12.55
2023-02-22T12:50:06.646Z,13.80
2023-02-22T12:52:42.851Z,12.82
2023-02-22T12:55:16.879Z,13.05
2023-02-22T12:57:48.753Z,14.52
2023-02-22T13:00:23.121Z,14.35
2023-02-22T13:02:58.042Z,16.95
2023-02-22T13:05:25.885Z,15.45
2023-02-22T13:08:05.198Z,13.45
2023-02-22T13:10:41.057Z,17.25
2023-02-22T13:13:16.503Z,18.50
2023-02-22T13:15:49.050Z,18.88
2023-02-22T13:18:21.146Z,17.50
2023-02-22T13:20:55.994Z,16.50
2023-02-22T13:23:34.201Z,15.77
2023-02-22T13:26:09.021Z,16.00
2023-02-22T13:28:41.279Z,19.75
2023-02-22T13:31:24.054Z,17.10
2023-02-22T13:34:02.990Z,16.60
2023-02-22T13:36:39.246Z,16.52
2023-02-22T13:39:40.336Z,13.90
2023-02-22T13:42:22.384Z,14.95
2023-02-22T13:45:22.217Z,16.80
2023-02-22T13:48:17.465Z,11.02
2023-02-22T13:51:07.530Z,15.13
2023-02-22T13:53:43.662Z,15.82
2023-02-22T13:56:14.744Z,12.23
2023-02-22T13:58:49.718Z,13.05
2023-02-22T14:01:50.013Z,13.48
2023-02-22T14:04:46.380Z,14.00
2023-02-22T14:07:59.454Z,15.68
2023-02-22T14:10:46.678Z,14.98
2023-02-22T14:13:17.998Z,10.70
2023-02-22T14:16:20.878Z,12.52
2023-02-22T14:18:51.651Z,14.07
2023-02-22T14:21:21.324Z,13.02
2023-02-22T14:23:50.529Z,12.95
2023-02-22T14:26:22.306Z,10.32
2023-02-22T14:28:54.339Z,10.43
2023-02-22T14:31:35.416Z,11.82
2023-02-22T14:34:07.787Z,11.90
2023-02-22T14:36:51.756Z,13.85
2023-02-22T14:39:23.555Z,11.00
2023-02-22T14:41:56.843Z,12.68
2023-02-22T14:44:30.392Z,12.10
2023-02-22T14:47:02.260Z,12.70
2023-02-22T14:49:31.711Z,10.43
2023-02-22T14:52:03.825Z,13.15
2023-02-22T14:54:36.926Z,12.73
2023-02-22T14:57:14.750Z,12.20
2023-02-22T14:59:51.893Z,13.02
2023-02-22T15:02:22.943Z,13.35
2023-02-22T15:04:55.813Z,12.52
2023-02-22T15:07:27.399Z,12.18
2023-02-22T15:10:20.567Z,12.32
2023-02-22T15:13:09.210Z,15.98
2023-02-22T15:15:43.765Z,14.07
2023-02-22T15:18:27.330Z,12.90
2023-02-22T15:20:58.388Z,10.45
2023-02-22T15:23:30.203Z,13.25
2023-02-22T15:25:58.138Z,12.70
2023-02-22T15:28:28.795Z,12.48
2023-02-22T15:31:32.402Z,12.13
2023-02-22T15:34:18.068Z,15.48
2023-02-22T15:36:47.402Z,20.17
2023-02-22T15:39:20.881Z,16.38
2023-02-22T15:41:49.043Z,14.90
2023-02-22T15:44:23.649Z,12.20
2023-02-22T15:46:55.246Z,14.23
2023-02-22T15:49:25.782Z,14.20
2023-02-22T15:52:09.421Z,16.40
2023-02-22T15:54:43.250Z,13.85
2023-02-22T15:57:14.113Z,10.35
2023-02-22T15:59:45.749Z,15.13
2023-02-22T16:02:38.654Z,18.40
2023-02-22T16:05:10.253Z,14.93
2023-02-22T16:07:41.950Z,15.32
2023-02-22T16:10:21.425Z,13.48
2023-02-22T16:12:49.374Z,14.30
2023-02-22T16:15:19.274Z,13.90
2023-02-22T16:18:00.877Z,13.60
2023-02-22T16:20:33.619Z,13.85
2023-02-22T16:23:01.546Z,16.73
2023-02-22T16:25:35.372Z,15.07
2023-02-22T16:28:06.351Z,12.20
2023-02-22T16:30:36.208Z,14.93
2023-02-22T16:33:09.175Z,13.68
2023-02-22T16:35:38.196Z,13.65
2023-02-22T16:38:07.511Z,14.73
2023-02-22T16:40:37.626Z,19.27
2023-02-22T16:43:07.572Z,14.80
2023-02-22T16:45:35.972Z,17.67
2023-02-22T16:48:12.995Z,16.98
2023-02-22T16:50:41.991Z,15.27
2023-02-22T16:53:10.150Z,16.75
2023-02-22T16:55:37.868Z,14.43
2023-02-22T16:58:05.889Z,14.77
2023-02-22T17:00:34.616Z,15.75
2023-02-22T17:03:04.335Z,20.45
2023-02-22T17:05:32.430Z,18.00
2023-02-22T17:08:01.569Z,26.90
2023-02-22T17:10:29.352Z,16.10
2023-02-22T17:12:57.240Z,14.60
2023-02-22T17:15:27.437Z,17.45
2023-02-22T17:17:57.054Z,15.65
2023-02-22T17:20:29.943Z,16.75
2023-02-22T17:22:59.095Z,16.50
2023-02-22T17:25:30.771Z,16.40
2023-02-22T17:27:58.511Z,15.38
2023-02-22T17:30:26.401Z,14.63
2023-02-22T17:32:56.026Z,15.18
2023-02-22T17:35:26.945Z,18.70
2023-02-22T17:37:54.596Z,15.68
2023-02-22T17:40:22.603Z,21.75
2023-02-22T17:42:55.113Z,19.83
2023-02-22T17:45:24.230Z,19.63
2023-02-22T17:47:53.020Z,19.63
2023-02-22T17:50:21.404Z,19.02
2023-02-22T17:52:51.513Z,19.55
2023-02-22T17:55:20.869Z,22.25
2023-02-22T17:57:48.959Z,29.42
2023-02-22T18:00:23.388Z,27.88
2023-02-22T18:02:52.249Z,18.52
2023-02-22T18:05:20.481Z,14.63
2023-02-22T18:07:48.192Z,17.10
2023-02-22T18:10:20.619Z,17.88
2023-02-22T18:12:48.939Z,15.85
2023-02-22T18:15:18.166Z,15.88
2023-02-22T18:17:46.901Z,17.92
2023-02-22T18:20:19.070Z,17.15
2023-02-22T18:22:46.927Z,14.52
2023-02-22T18:25:16.600Z,14.32
2023-02-22T18:27:44.273Z,18.25
2023-02-22T18:30:12.978Z,13.30
2023-02-22T18:32:46.013Z,13.07
2023-02-22T18:35:14.159Z,13.35
2023-02-22T18:37:44.109Z,15.68
2023-02-22T18:40:12.305Z,15.30
2023-02-22T18:42:40.534Z,18.85
2023-02-22T18:45:08.835Z,14.40
2023-02-22T18:47:43.006Z,14.82
2023-02-22T18:50:11.709Z,12.45
2023-02-22T18:52:45.662Z,12.57
2023-02-22T18:55:14.528Z,14.70
2023-02-22T18:57:42.766Z,11.88
2023-02-22T19:00:12.131Z,15.50
2023-02-22T19:02:43.431Z,13.25
2023-02-22T19:05:17.205Z,12.77
2023-02-22T19:07:45.607Z,10.15
2023-02-22T19:10:13.419Z,11.38
2023-02-22T19:12:41.216Z,13.13
2023-02-22T19:15:11.487Z,15.20
2023-02-22T19:17:40.631Z,13.00
2023-02-22T19:20:12.113Z,16.92
2023-02-22T19:22:39.878Z,14.05
2023-02-22T19:25:08.125Z,16.45
2023-02-22T19:27:35.924Z,16.90
2023-02-22T19:30:04.922Z,12.88
2023-02-22T19:32:33.694Z,14.10
2023-02-22T19:35:02.974Z,13.75
2023-02-22T19:37:34.818Z,12.52
2023-02-22T19:40:06.578Z,16.80
2023-02-22T19:42:34.236Z,16.52
2023-02-22T19:45:01.911Z,14.80
2023-02-22T19:47:29.713Z,17.10
2023-02-22T19:49:59.696Z,18.75
2023-02-22T19:52:29.314Z,18.30
2023-02-22T19:54:58.415Z,17.38
2023-02-22T19:57:27.095Z,16.50
2023-02-22T19:59:55.877Z,18.60
2023-02-22T20:02:27.227Z,18.70
2023-02-22T20:04:55.469Z,18.65
2023-02-22T20:07:23.151Z,20.48
2023-02-22T20:09:50.944Z,21.00
2023-02-22T20:12:21.317Z,17.00
2023-02-22T20:14:48.988Z,17.90
2023-02-22T20:17:16.635Z,17.30
2023-02-22T20:19:44.288Z,17.73
2023-02-22T20:22:12.098Z,17.40
2023-02-22T20:24:40.622Z,16.45
2023-02-22T20:27:09.081Z,17.25
2023-02-22T20:29:38.249Z,17.10
2023-02-22T20:32:07.119Z,18.27
2023-02-22T20:34:36.137Z,18.60
2023-02-22T20:37:04.713Z,16.65
2023-02-22T20:39:32.659Z,17.00
2023-02-22T20:42:02.585Z,14.85
2023-02-22T20:44:30.630Z,21.52
2023-02-22T20:46:59.672Z,18.92
2023-02-22T20:49:28.014Z,19.23
2023-02-22T20:51:55.745Z,15.63
2023-02-22T20:54:23.464Z,19.48
2023-02-22T20:56:52.854Z,17.95
2023-02-22T20:59:21.203Z,17.20
2023-02-22T21:01:50.291Z,15.65
2023-02-22T21:04:22.027Z,18.83
2023-02-22T21:06:49.872Z,17.42
2023-02-22T21:09:19.977Z,20.27
2023-02-22T21:11:47.864Z,18.08
2023-02-22T21:14:18.721Z,16.75
2023-02-22T21:16:47.691Z,15.88
2023-02-22T21:19:25.150Z,18.45
2023-02-22T21:22:01.326Z,15.95
2023-02-22T21:24:30.170Z,16.70
2023-02-22T21:26:59.183Z,20.67
2023-02-22T21:29:27.535Z,17.40
2023-02-22T21:31:55.574Z,18.25
2023-02-22T21:34:23.402Z,21.85
2023-02-22T21:36:52.428Z,19.48
2023-02-22T21:39:22.519Z,16.90
2023-02-22T21:41:51.621Z,16.08
2023-02-22T21:44:20.617Z,17.63
2023-02-22T21:46:50.058Z,19.30
2023-02-22T21:49:22.174Z,17.60
2023-02-22T21:51:51.498Z,20.80
2023-02-22T21:54:21.331Z,20.98
2023-02-22T21:56:49.192Z,14.82
2023-02-22T21:59:20.057Z,17.80
2023-02-22T22:01:49.823Z,16.02
2023-02-22T22:04:20.233Z,16.73
2023-02-22T22:06:48.854Z,15.50
2023-02-22T22:09:19.609Z,16.45
2023-02-22T22:11:50.928Z,17.98
2023-02-22T22:14:19.144Z,21.83
2023-02-22T22:16:48.057Z,20.17
2023-02-22T22:19:15.833Z,16.42
2023-02-22T22:21:43.578Z,21.38
2023-02-22T22:24:11.992Z,22.90
2023-02-22T22:26:40.404Z,18.35
2023-02-22T22:29:10.719Z,18.23
2023-02-22T22:31:38.766Z,21.95
2023-02-22T22:34:06.654Z,17.30
2023-02-22T22:36:35.959Z,20.10
2023-02-22T22:39:12.609Z,19.88
2023-02-22T22:41:41.319Z,21.05
2023-02-22T22:44:11.065Z,20.85
2023-02-22T22:46:40.757Z,24.33
2023-02-22T22:49:09.146Z,21.13
2023-02-22T22:51:37.609Z,20.75
2023-02-22T22:54:06.532Z,21.48
2023-02-22T22:56:35.995Z,23.17
2023-02-22T22:59:07.513Z,20.85
2023-02-22T23:01:40.533Z,20.52
2023-02-22T23:04:12.352Z,22.60
2023-02-22T23:06:42.105Z,23.52
2023-02-22T23:09:12.402Z,23.58
2023-02-22T23:11:44.189Z,21.58
2023-02-22T23:14:13.195Z,21.08
2023-02-22T23:16:42.730Z,20.58
2023-02-22T23:19:10.912Z,23.95
2023-02-22T23:21:39.414Z,21.60
2023-02-22T23:24:07.556Z,21.15
2023-02-22T23:26:35.773Z,21.67
2023-02-22T23:29:04.336Z,23.30
2023-02-22T23:31:33.991Z,19.77
2023-02-22T23:34:10.861Z,22.73
2023-02-22T23:36:39.476Z,22.42
2023-02-22T23:39:07.907Z,22.52
2023-02-22T23:41:36.440Z,21.23
2023-02-22T23:44:08.173Z,26.13
2023-02-22T23:46:36.465Z,23.52
2023-02-22T23:49:06.196Z,21.30
2023-02-22T23:51:39.359Z,21.52
2023-02-22T23:54:07.856Z,20.83
2023-02-22T23:56:39.899Z,24.60
2023-02-22T23:59:11.212Z,22.88
